createdAt,value
2022-12-27T08:59:47.756Z,3.03
2022-12-27T09:02:16.015Z,3.85
2022-12-27T09:04:43.413Z,2.05
2022-12-27T09:07:10.727Z,8.32
2022-12-27T09:09:38.015Z,2.65
2022-12-27T09:12:09.148Z,5.40
2022-12-27T09:14:36.917Z,2.90
2022-12-27T09:17:05.929Z,3.13
2022-12-27T09:19:33.261Z,2.95
2022-12-27T09:22:00.689Z,3.38
2022-12-27T09:24:28.052Z,3.97
2022-12-27T09:26:55.642Z,3.92
2022-12-27T09:29:22.983Z,3.78
2022-12-27T09:31:50.299Z,4.07
2022-12-27T09:34:17.699Z,5.43
2022-12-27T09:36:45.097Z,5.60
2022-12-27T09:39:13.755Z,2.60
2022-12-27T09:42:58.972Z,1.75
2022-12-27T09:45:50.120Z,3.20
2022-12-27T09:48:36.751Z,4.35
2022-12-27T09:51:32.747Z,4.32
2022-12-27T09:54:23.361Z,3.63
2022-12-27T09:57:18.959Z,4.63
2022-12-27T09:59:52.616Z,4.13
2022-12-27T10:02:29.179Z,3.60
2022-12-27T10:08:36.443Z,3.38
2022-12-27T10:11:45.106Z,3.30
2022-12-27T10:15:06.201Z,1.90
2022-12-27T10:18:01.473Z,2.85
2022-12-27T10:21:05.115Z,3.17
2022-12-27T10:23:36.743Z,2.33
2022-12-27T10:26:18.795Z,2.53
2022-12-27T10:29:23.833Z,3.97
2022-12-27T10:31:51.978Z,5.35
2022-12-27T10:34:24.417Z,2.58
2022-12-27T10:36:53.534Z,4.90
2022-12-27T10:39:30.638Z,2.67
2022-12-27T10:42:39.778Z,4.30
2022-12-27T10:45:34.350Z,9.30
2022-12-27T10:48:47.378Z,3.55
2022-12-27T10:51:17.431Z,4.22
2022-12-27T10:54:05.481Z,3.03
2022-12-27T10:56:41.474Z,3.80
2022-12-27T10:59:29.593Z,3.33
2022-12-27T11:02:03.061Z,3.42
2022-12-27T11:04:32.390Z,3.05
2022-12-27T11:07:02.320Z,4.97
2022-12-27T11:09:50.627Z,2.47
2022-12-27T11:12:32.133Z,3.88
2022-12-27T11:15:18.905Z,2.80
2022-12-27T11:17:55.324Z,5.03
2022-12-27T11:20:57.913Z,3.47
2022-12-27T11:23:40.662Z,3.95
2022-12-27T11:26:08.274Z,2.05
2022-12-27T11:28:55.947Z,3.67
2022-12-27T11:31:44.571Z,4.25
2022-12-27T11:34:34.950Z,2.25
2022-12-27T11:37:16.113Z,2.15
2022-12-27T11:40:10.339Z,2.00
2022-12-27T11:43:19.314Z,1.27
2022-12-27T11:45:51.393Z,2.33
2022-12-27T11:48:38.424Z,2.58
2022-12-27T11:51:30.136Z,6.30
2022-12-27T11:54:48.870Z,3.30
2022-12-27T11:58:18.053Z,2.28
2022-12-27T12:01:54.552Z,1.77
2022-12-27T12:04:58.800Z,2.95
2022-12-27T12:09:03.994Z,3.47
2022-12-27T12:12:09.821Z,3.72
2022-12-27T12:15:42.137Z,2.83
2022-12-27T12:19:11.677Z,2.83
2022-12-27T12:22:41.917Z,2.47
2022-12-27T12:26:05.897Z,1.55
2022-12-27T12:29:25.386Z,1.38
2022-12-27T12:32:34.294Z,3.22
2022-12-27T12:36:03.578Z,3.53
2022-12-27T12:39:29.494Z,1.80
2022-12-27T12:42:43.447Z,2.33
2022-12-27T12:45:53.211Z,2.30
2022-12-27T12:49:38.449Z,2.97
2022-12-27T12:52:49.064Z,6.40
2022-12-27T12:56:07.064Z,4.97
2022-12-27T12:59:22.858Z,3.15
2022-12-27T13:02:26.483Z,2.85
2022-12-27T13:05:49.406Z,2.78
2022-12-27T13:08:52.876Z,2.38
2022-12-27T13:12:23.152Z,4.65
2022-12-27T13:16:03.712Z,2.97
2022-12-27T13:19:37.902Z,4.15
2022-12-27T13:23:00.152Z,2.20
2022-12-27T13:26:18.885Z,2.55
2022-12-27T13:30:22.124Z,3.63
2022-12-27T13:33:46.003Z,4.68
2022-12-27T13:37:10.338Z,2.90
2022-12-27T13:40:30.366Z,4.68
2022-12-27T13:44:13.215Z,3.33
2022-12-27T13:47:37.407Z,2.53
2022-12-27T13:51:31.594Z,4.55
2022-12-27T13:55:16.154Z,1.60
2022-12-27T13:58:53.521Z,3.75
2022-12-27T14:01:57.217Z,4.80
2022-12-27T14:05:30.327Z,1.75
2022-12-27T14:08:57.120Z,9.38
2022-12-27T14:12:50.007Z,8.93
2022-12-27T14:15:33.234Z,9.07
2022-12-27T14:18:45.049Z,3.92
2022-12-27T14:22:15.293Z,6.97
2022-12-27T14:26:01.782Z,5.15
2022-12-27T14:29:38.805Z,3.85
2022-12-27T14:33:04.723Z,3.38
2022-12-27T14:36:42.221Z,3.55
2022-12-27T14:40:04.962Z,3.80
2022-12-27T14:43:29.550Z,2.25
2022-12-27T14:46:55.395Z,5.07
2022-12-27T14:50:25.447Z,3.08
2022-12-27T14:53:26.718Z,1.87
2022-12-27T14:56:33.102Z,6.35
2022-12-27T14:59:36.855Z,2.92
2022-12-27T15:03:39.475Z,6.25
2022-12-27T15:07:16.147Z,1.92
2022-12-27T15:10:23.607Z,2.85
2022-12-27T15:13:46.192Z,4.40
2022-12-27T15:17:17.391Z,2.78
2022-12-27T15:20:34.432Z,5.93
2022-12-27T15:23:46.985Z,3.75
2022-12-27T15:27:11.149Z,4.13
2022-12-27T15:30:29.076Z,4.80
2022-12-27T15:33:48.948Z,2.67
2022-12-27T15:36:21.186Z,3.25
2022-12-27T15:38:55.065Z,2.88
2022-12-27T15:42:33.110Z,1.92
2022-12-27T15:45:50.796Z,2.33
2022-12-27T15:48:59.317Z,2.83
2022-12-27T15:52:23.739Z,2.60
2022-12-27T15:55:29.865Z,2.95
2022-12-27T15:58:23.105Z,3.13
2022-12-27T16:01:26.692Z,3.78
2022-12-27T16:03:58.482Z,1.95
2022-12-27T16:06:34.815Z,4.70
2022-12-27T16:09:25.837Z,2.55
2022-12-27T16:12:13.696Z,4.57
2022-12-27T16:14:44.275Z,3.45
2022-12-27T16:17:54.382Z,2.90
2022-12-27T16:20:23.558Z,3.55
2022-12-27T16:23:11.441Z,6.75
2022-12-27T16:25:41.072Z,3.38
2022-12-27T16:28:27.657Z,2.22
2022-12-27T16:31:09.506Z,4.93
2022-12-27T16:33:41.900Z,3.90
2022-12-27T16:36:43.042Z,3.17
2022-12-27T16:39:35.176Z,3.33
2022-12-27T16:42:08.248Z,7.20
2022-12-27T16:45:03.014Z,4.88
2022-12-27T16:48:10.846Z,4.93
2022-12-27T16:51:30.728Z,2.95
2022-12-27T16:54:22.591Z,4.20
2022-12-27T16:56:49.928Z,3.08
2022-12-27T16:59:57.756Z,3.67
2022-12-27T17:02:46.461Z,7.03
2022-12-27T17:05:16.742Z,9.52
2022-12-27T17:08:13.107Z,6.85
2022-12-27T17:10:51.931Z,5.63
2022-12-27T17:14:02.303Z,6.65
2022-12-27T17:16:51.975Z,11.63
2022-12-27T17:19:56.476Z,7.45
2022-12-27T17:22:32.263Z,5.40
2022-12-27T17:25:03.842Z,6.93
2022-12-27T17:28:09.600Z,6.25
2022-12-27T17:31:10.751Z,6.18
2022-12-27T17:34:11.227Z,5.45
2022-12-27T17:36:58.758Z,5.78
2022-12-27T17:40:12.587Z,9.10
2022-12-27T17:43:53.130Z,6.75
2022-12-27T17:46:55.092Z,4.82
2022-12-27T17:49:32.139Z,6.80
2022-12-27T17:52:22.844Z,6.28
2022-12-27T17:57:54.187Z,6.60
2022-12-27T18:00:29.642Z,6.85
2022-12-27T18:03:02.433Z,8.98
2022-12-27T18:05:33.388Z,5.47
2022-12-27T18:08:28.163Z,6.80
2022-12-27T18:11:05.360Z,6.93
2022-12-27T18:13:44.817Z,9.88
2022-12-27T18:16:28.014Z,7.15
2022-12-27T18:18:59.836Z,6.88
2022-12-27T18:21:30.522Z,7.03
2022-12-27T18:23:58.629Z,9.60
2022-12-27T18:26:41.995Z,8.73
2022-12-27T18:29:12.557Z,6.95
2022-12-27T18:31:51.657Z,4.18
2022-12-27T18:34:36.820Z,5.55
2022-12-27T18:37:17.130Z,4.95
2022-12-27T18:40:01.889Z,4.95
2022-12-27T18:42:43.195Z,6.72
2022-12-27T18:45:41.774Z,4.47
2022-12-27T18:48:14.186Z,2.95
2022-12-27T18:50:53.834Z,3.58
2022-12-27T18:53:37.702Z,4.40
2022-12-27T18:56:39.240Z,6.72
2022-12-27T18:59:28.783Z,5.28
2022-12-27T19:02:03.741Z,6.45
2022-12-27T19:04:33.697Z,5.90
2022-12-27T19:07:14.407Z,9.45
2022-12-27T19:12:39.250Z,6.60
2022-12-27T19:15:39.882Z,4.78
2022-12-27T19:18:31.060Z,11.18
2022-12-27T19:21:03.187Z,8.38
2022-12-27T19:23:39.544Z,6.57
2022-12-27T19:26:15.538Z,6.18
2022-12-27T19:28:45.329Z,6.05
2022-12-27T19:31:22.018Z,8.50
2022-12-27T19:34:01.090Z,4.78
2022-12-27T19:36:33.869Z,6.28
2022-12-27T19:39:01.397Z,5.85
2022-12-27T19:41:29.906Z,5.50
2022-12-27T19:43:57.322Z,3.92
2022-12-27T19:46:30.723Z,5.45
2022-12-27T19:51:46.592Z,4.20
2022-12-27T19:54:20.690Z,6.20
2022-12-27T19:56:48.291Z,6.72
2022-12-27T19:59:24.137Z,8.25
2022-12-27T20:01:53.028Z,7.05
2022-12-27T20:04:20.533Z,8.70
2022-12-27T20:06:49.530Z,8.60
2022-12-27T20:09:19.775Z,8.10
2022-12-27T20:11:49.876Z,7.57
2022-12-27T20:14:19.987Z,7.60
2022-12-27T20:16:47.674Z,7.10
2022-12-27T20:19:18.223Z,8.02
2022-12-27T20:24:14.255Z,6.18
2022-12-27T20:26:43.746Z,4.30
2022-12-27T20:29:12.892Z,9.23
2022-12-27T20:31:45.165Z,8.85
2022-12-27T20:34:13.036Z,6.93
2022-12-27T20:36:41.926Z,6.25
2022-12-27T20:39:09.670Z,7.22
2022-12-27T20:41:38.320Z,6.15
2022-12-27T20:44:06.288Z,8.35
2022-12-27T20:46:33.627Z,7.35
2022-12-27T20:49:01.218Z,7.43
2022-12-27T20:51:33.367Z,7.55
2022-12-27T20:54:03.638Z,8.68
2022-12-27T20:56:31.590Z,5.95
2022-12-27T20:58:58.888Z,6.18
2022-12-27T21:01:27.245Z,7.90
2022-12-27T21:03:56.772Z,10.85
2022-12-27T21:06:29.061Z,10.38
2022-12-27T21:08:58.569Z,10.77
2022-12-27T21:11:31.935Z,7.03
2022-12-27T21:14:03.348Z,6.30
2022-12-27T21:16:35.011Z,6.63
2022-12-27T21:19:04.802Z,9.02
2022-12-27T21:21:37.062Z,9.32
2022-12-27T21:24:08.418Z,10.52
2022-12-27T21:26:39.165Z,9.07
2022-12-27T21:29:09.804Z,9.50
2022-12-27T21:31:38.447Z,9.18
2022-12-27T21:34:07.081Z,10.45
2022-12-27T21:36:35.587Z,7.60
2022-12-27T21:39:06.072Z,8.45
2022-12-27T21:41:40.117Z,6.43
2022-12-27T21:44:08.190Z,8.27
2022-12-27T21:46:42.023Z,7.72
2022-12-27T21:49:13.513Z,7.35
2022-12-27T21:51:43.688Z,9.85
2022-12-27T21:54:13.726Z,6.82
2022-12-27T21:56:41.320Z,9.30
2022-12-27T21:59:11.184Z,8.80
2022-12-27T22:01:50.100Z,8.07
2022-12-27T22:04:23.191Z,5.60
2022-12-27T22:06:50.794Z,6.45
2022-12-27T22:09:19.274Z,7.03
2022-12-27T22:11:46.997Z,8.50
2022-12-27T22:14:14.361Z,8.10
2022-12-27T22:16:41.704Z,6.43
2022-12-27T22:19:13.082Z,5.88
2022-12-27T22:21:44.770Z,6.45
2022-12-27T22:24:19.207Z,4.78
2022-12-27T22:26:48.580Z,5.20
2022-12-27T22:29:16.143Z,4.40
2022-12-27T22:31:43.435Z,5.68
2022-12-27T22:34:10.805Z,5.28
2022-12-27T22:36:38.134Z,7.78
2022-12-27T22:39:05.912Z,4.60
2022-12-27T22:41:38.017Z,3.35
2022-12-27T22:44:12.791Z,3.80
2022-12-27T22:47:23.762Z,2.55
2022-12-27T22:49:29.731Z,5.05
2022-12-27T22:51:57.066Z,4.50
2022-12-27T22:55:06.079Z,4.95
2022-12-27T22:57:11.701Z,4.25
2022-12-27T22:59:39.250Z,4.30
2022-12-27T23:02:06.648Z,4.88
2022-12-27T23:04:34.047Z,3.72
2022-12-27T23:07:02.130Z,5.20
2022-12-27T23:09:29.942Z,5.10
2022-12-27T23:11:57.418Z,2.97
2022-12-27T23:14:25.156Z,4.80
2022-12-27T23:16:52.651Z,5.63
2022-12-27T23:19:24.258Z,5.15
2022-12-27T23:21:51.619Z,4.65
2022-12-27T23:24:19.284Z,4.38
2022-12-27T23:26:46.600Z,4.07
2022-12-27T23:29:15.363Z,8.20
2022-12-27T23:31:54.766Z,4.45
2022-12-27T23:36:58.485Z,4.38
2022-12-27T23:39:26.291Z,5.17
